Gardiner, MT (59030)

1:05 PM MST on February 06, 2016 (GMT -0700)
Gardiner, MT | | Change Station
CLOSE
Current Station
Personal Weather Station
Location: Gardiner, MT
Elevation: 5325 ft
Nearby Weather Stations

Elev 5325 ft 45.04 °N, 110.71 °W | Updated 24 seconds ago

Clear
Clear
35.4 °F
Feels Like 27 °F
N
11.9
Wind Variable Wind from NW
Gusts 16.0 mph

Today
High -- | Low -- °F
--% Chance of Precip.
Yesterday
High -- | Low -- °F
Precip. -- in
Pressure 30.15 in
Visibility 10.0 miles
Clouds Scattered Clouds 5500 ft
Overcast 7000 ft
Windchill 27 °F
Dew Point 21 °F
Humidity 56%
Rainfall 0.00 in
Snow Depth Not available.
7:37 AM 5:37 PM
Waning Crescent, 4% visible
METAR KLVM 061953Z AUTO 30015G22KT 10SM SCT055 OVC070 02/M04 A3008 RMK AO2 PK WND 30042/1931 SLP208 T00221044
Pressure 30.15 in
Visibility 10.0 miles
Clouds Scattered Clouds 5500 ft
Overcast 7000 ft
Windchill 27 °F
Dew Point 21 °F
Humidity 56%
Rainfall 0.00 in
Snow Depth Not available.
7:37 AM 5:37 PM
Waning Crescent, 4% visible
METAR KLVM 061953Z AUTO 30015G22KT 10SM SCT055 OVC070 02/M04 A3008 RMK AO2 PK WND 30042/1931 SLP208 T00221044

10-Day Weather Forecast

Almanac

Astronomy

Feb. 06, 2016 Rise Set
Actual Time
Civil Twilight
Nautical Twilight
Astronomical Twilight
Moon
Length of Visible Light
Length of Day
Tomorrow will be .
, % of the Moon is Illuminated

Today's Extremes

State Highs State Lows

Community

WunderPhotos

Upload Photos

1,891,043 photos uploaded!

WunderBlog® & News

Nearby

Air Quality

  Air Quality AQ Index Pollutant
Not available.

Snow Depth

Station Depth Elevation

Earthquake Activity

City Distance Mag. Time & Date
Minimum magnitude displayed is 2.5.

Coastal Water Temperatures

Place Temperature

Stations

Nearby Weather Stations

Station Location Temp. Windchill Dew Point Humidity Wind Precip. Elev Updated Type
                   

Watches & Warnings

There are currently no watches in effect.